Time;durP1;ratioP1;P1;durP2;ratioP2;P2;SDS_P1;SDS_P2;PMS_P1;PMS_P2;Temp;Humidity;BMP_temperature;BMP_pressure;BME280_temperature;BME280_humidity;BME280_pressure;Samples;Min_cycle;Max_cycle;Signal;HPM_P1;HPM_P2
2022/10/03 00:02:27;;;;;;;34.35;19.90;;;9.80;99.90;;;;;;4966078;28;20047;-72
2022/10/03 00:05:23;;;;;;;41.17;18.42;;;9.80;99.90;;;;;;4944130;29;20043;-72
2022/10/03 00:08:08;;;;;;;37.30;20.88;;;9.90;99.90;;;;;;4950315;29;20390;-71
2022/10/03 00:11:16;;;;;;;34.33;20.00;;;9.80;99.90;;;;;;4954560;28;20392;-71
2022/10/03 00:14:01;;;;;;;37.53;19.17;;;9.80;99.90;;;;;;4960654;28;20047;-71
2022/10/03 00:16:55;;;;;;;36.05;19.85;;;9.80;99.90;;;;;;4958435;28;20043;-71
2022/10/03 00:19:31;;;;;;;32.25;19.05;;;9.80;99.90;;;;;;4936354;29;20051;-71
2022/10/03 00:22:12;;;;;;;40.65;20.48;;;9.70;99.90;;;;;;4954912;28;20047;-71
2022/10/03 00:25:14;;;;;;;35.28;19.55;;;9.70;99.90;;;;;;4943839;29;20565;-73
2022/10/03 00:27:51;;;;;;;33.22;18.40;;;9.70;99.90;;;;;;4956223;28;20066;-69
2022/10/03 00:30:23;;;;;;;35.83;18.65;;;9.60;99.90;;;;;;4954757;28;20063;-71
2022/10/03 00:33:19;;;;;;;35.22;19.25;;;9.70;99.90;;;;;;4932414;29;20047;-70
2022/10/03 00:35:56;;;;;;;35.20;20.30;;;9.70;99.90;;;;;;4956510;28;20626;-72
2022/10/03 00:38:45;;;;;;;40.38;20.65;;;9.70;99.90;;;;;;4946321;29;20058;-72
2022/10/03 00:42:02;;;;;;;39.78;21.17;;;9.80;99.90;;;;;;4953332;29;20510;-71
2022/10/03 00:45:00;;;;;;;35.13;20.35;;;9.90;99.90;;;;;;4950124;28;20047;-72
2022/10/03 00:47:43;;;;;;;38.95;18.98;;;9.90;99.90;;;;;;4933477;29;20062;-69
2022/10/03 00:50:30;;;;;;;36.80;19.33;;;9.80;99.90;;;;;;4947912;28;20047;-69
2022/10/03 00:53:00;;;;;;;38.22;21.10;;;9.80;99.90;;;;;;4950782;28;20079;-69
2022/10/03 00:55:54;;;;;;;42.90;20.75;;;9.90;99.90;;;;;;4947805;28;20591;-69
2022/10/03 00:58:27;;;;;;;36.22;18.83;;;9.90;99.90;;;;;;4936751;28;20098;-69
2022/10/03 01:01:19;;;;;;;34.85;19.52;;;9.90;99.90;;;;;;4956006;28;20094;-69
2022/10/03 01:04:02;;;;;;;34.95;20.17;;;9.90;99.90;;;;;;4950935;28;20051;-69
2022/10/03 01:06:45;;;;;;;34.95;19.42;;;9.90;99.90;;;;;;4931656;29;20147;-69
2022/10/03 01:09:27;;;;;;;37.58;18.60;;;10.00;99.90;;;;;;4949525;28;20146;-70
2022/10/03 01:12:15;;;;;;;32.75;18.75;;;10.00;99.90;;;;;;4951138;28;20186;-69
2022/10/03 01:15:11;;;;;;;39.00;20.08;;;10.00;99.90;;;;;;4948881;28;20533;-69
2022/10/03 01:17:46;;;;;;;38.63;19.23;;;10.00;99.90;;;;;;4937269;28;20158;-70
2022/10/03 01:20:42;;;;;;;37.10;20.50;;;10.00;99.90;;;;;;4936420;29;20094;-70
2022/10/03 01:23:47;;;;;;;31.35;17.95;;;9.90;99.90;;;;;;4953101;29;20047;-70
2022/10/03 01:26:30;;;;;;;34.30;17.70;;;9.90;99.90;;;;;;4953081;28;20544;-69
2022/10/03 01:31:54;;;;;;;31.88;18.23;;;9.90;99.90;;;;;;4940882;29;20051;-69
2022/10/03 01:34:32;;;;;;;31.90;19.08;;;9.80;99.90;;;;;;4953031;28;20475;-69
2022/10/03 01:37:21;;;;;;;38.38;18.05;;;9.80;99.90;;;;;;4952583;28;20581;-69
2022/10/03 01:39:49;;;;;;;32.45;18.40;;;9.80;99.90;;;;;;4952576;28;20062;-69
2022/10/03 01:42:44;;;;;;;33.92;17.55;;;9.70;99.90;;;;;;4951422;28;20098;-69
2022/10/03 01:45:28;;;;;;;31.23;17.60;;;9.60;99.90;;;;;;4951652;29;20426;-69
2022/10/03 01:48:11;;;;;;;40.95;20.83;;;9.60;99.90;;;;;;4952581;28;20046;-70
2022/10/03 01:51:10;;;;;;;35.42;19.17;;;9.60;99.90;;;;;;4950993;28;20039;-70
2022/10/03 01:54:03;;;;;;;32.72;18.52;;;9.50;99.90;;;;;;4947320;29;20521;-70
2022/10/03 01:56:50;;;;;;;43.13;19.20;;;9.50;99.90;;;;;;4953060;28;20049;-70
2022/10/03 01:59:33;;;;;;;49.92;21.10;;;9.40;99.90;;;;;;4951809;28;20047;-70
2022/10/03 02:02:32;;;;;;;38.03;20.13;;;9.40;99.90;;;;;;4950475;29;20043;-70
2022/10/03 02:05:04;;;;;;;43.47;20.80;;;9.40;99.90;;;;;;4940146;28;20514;-71
2022/10/03 02:08:16;;;;;;;45.17;21.20;;;9.40;99.90;;;;;;4954536;28;20070;-70
2022/10/03 02:11:02;;;;;;;35.88;20.55;;;9.40;99.90;;;;;;4926950;29;20515;-70
2022/10/03 02:13:44;;;;;;;40.28;21.63;;;9.30;99.90;;;;;;4926232;29;20100;-72
2022/10/03 02:16:12;;;;;;;44.35;20.48;;;9.30;99.90;;;;;;4915316;29;20044;-71
2022/10/03 02:18:49;;;;;;;45.80;21.60;;;9.20;99.90;;;;;;4914658;29;20062;-70
2022/10/03 02:21:26;;;;;;;44.55;22.40;;;9.20;99.90;;;;;;4929170;29;20044;-71
2022/10/03 02:24:14;;;;;;;47.40;21.85;;;9.30;99.90;;;;;;4928820;29;20496;-72
2022/10/03 02:26:56;;;;;;;46.35;21.58;;;9.20;99.90;;;;;;4906536;29;20170;-71
2022/10/03 02:29:33;;;;;;;45.50;22.20;;;9.20;99.90;;;;;;4926770;29;20131;-70
2022/10/03 02:32:45;;;;;;;48.00;23.60;;;9.20;99.90;;;;;;4927007;29;20047;-71
2022/10/03 02:35:13;;;;;;;39.45;21.60;;;9.20;99.90;;;;;;4916483;29;20063;-70
2022/10/03 02:38:18;;;;;;;45.17;23.02;;;9.10;99.90;;;;;;4928584;29;20132;-70
2022/10/03 02:40:51;;;;;;;43.28;21.65;;;9.10;99.90;;;;;;4874243;29;20049;-71
2022/10/03 02:43:22;;;;;;;42.63;22.02;;;9.10;99.90;;;;;;4875146;29;20104;-71
2022/10/03 02:46:22;;;;;;;41.38;21.83;;;9.10;99.90;;;;;;4908675;29;20135;-70
2022/10/03 02:49:26;;;;;;;41.72;22.70;;;9.10;99.90;;;;;;4911046;29;20075;-71
2022/10/03 02:52:40;;;;;;;38.00;20.98;;;9.10;99.90;;;;;;4911329;29;20044;-68
2022/10/03 02:55:10;;;;;;;43.92;22.73;;;9.10;99.90;;;;;;4916327;29;20052;-69
2022/10/03 02:57:57;;;;;;;47.47;23.25;;;9.10;99.90;;;;;;4910164;29;20052;-69
2022/10/03 03:00:40;;;;;;;39.45;21.20;;;9.10;99.90;;;;;;4893382;29;20044;-69
2022/10/03 03:03:29;;;;;;;46.00;22.45;;;9.00;99.90;;;;;;4895630;29;20115;-71
2022/10/03 03:06:19;;;;;;;48.50;22.25;;;9.00;99.90;;;;;;4922478;29;20055;-70
2022/10/03 03:08:46;;;;;;;47.60;24.30;;;9.10;99.90;;;;;;4911175;29;20055;-70
2022/10/03 03:11:28;;;;;;;44.35;22.65;;;9.10;99.90;;;;;;4913792;29;20107;-70
2022/10/03 03:14:30;;;;;;;44.30;21.80;;;9.20;99.90;;;;;;4920081;29;20499;-70
2022/10/03 03:17:20;;;;;;;45.83;21.88;;;9.20;99.90;;;;;;4954664;28;20484;-71
2022/10/03 03:20:09;;;;;;;44.58;22.40;;;9.30;99.90;;;;;;4954189;28;20055;-70
2022/10/03 03:22:40;;;;;;;45.13;21.58;;;9.30;99.90;;;;;;4954286;29;20043;-71
2022/10/03 03:25:18;;;;;;;47.55;22.05;;;9.30;99.90;;;;;;4954546;28;20047;-72
2022/10/03 03:28:10;;;;;;;43.95;23.05;;;9.30;99.90;;;;;;4955038;28;20510;-71
2022/10/03 03:31:02;;;;;;;40.60;20.48;;;9.30;99.90;;;;;;4952886;28;20047;-71
2022/10/03 03:33:42;;;;;;;40.58;20.33;;;9.30;99.90;;;;;;4953606;28;20055;-70
2022/10/03 03:36:28;;;;;;;38.22;20.85;;;9.30;99.90;;;;;;4953466;29;20046;-71
2022/10/03 03:39:04;;;;;;;39.33;19.73;;;9.40;99.90;;;;;;4955295;29;20043;-71
2022/10/03 03:42:08;;;;;;;41.53;20.33;;;9.30;99.90;;;;;;4936218;28;20046;-71
2022/10/03 03:44:57;;;;;;;34.67;19.77;;;9.30;99.90;;;;;;4956516;28;20466;-70
2022/10/03 03:47:42;;;;;;;40.97;20.38;;;9.30;99.90;;;;;;4959803;28;20074;-71
2022/10/03 03:50:14;;;;;;;41.05;19.63;;;9.30;99.90;;;;;;4954127;28;20090;-71
2022/10/03 03:52:50;;;;;;;50.70;21.05;;;9.20;99.90;;;;;;4953959;29;20530;-69
2022/10/03 03:55:31;;;;;;;37.80;20.23;;;9.20;99.90;;;;;;4954896;28;20421;-71
2022/10/03 03:58:17;;;;;;;40.63;19.00;;;9.20;99.90;;;;;;4954017;29;20121;-69
2022/10/03 04:00:54;;;;;;;36.97;18.73;;;9.20;99.90;;;;;;4956891;28;20058;-70
2022/10/03 04:03:36;;;;;;;36.05;19.52;;;9.30;99.90;;;;;;4953704;28;21649;-71
2022/10/03 04:06:12;;;;;;;35.35;18.90;;;9.20;99.90;;;;;;4955135;28;20047;-71
2022/10/03 04:09:12;;;;;;;39.65;17.92;;;9.10;99.90;;;;;;4953025;28;20556;-70
2022/10/03 04:12:08;;;;;;;38.58;17.67;;;9.00;99.90;;;;;;4959486;28;20055;-70
2022/10/03 04:14:55;;;;;;;37.75;18.17;;;9.00;99.90;;;;;;4953304;28;20074;-70
2022/10/03 04:21:09;;;;;;;37.33;18.23;;;9.00;99.90;;;;;;4971544;28;20367;-71
2022/10/03 04:23:42;;;;;;;37.95;16.92;;;9.00;99.90;;;;;;4956997;28;20053;-70
2022/10/03 04:26:18;;;;;;;36.65;18.92;;;8.90;99.90;;;;;;4953357;28;20113;-70
2022/10/03 04:28:52;;;;;;;37.83;19.50;;;8.90;99.90;;;;;;4955761;28;20098;-71
2022/10/03 04:31:48;;;;;;;42.13;20.23;;;8.90;99.90;;;;;;4953387;29;20051;-70
2022/10/03 04:34:36;;;;;;;36.47;18.73;;;8.80;99.90;;;;;;4939489;28;20514;-70
2022/10/03 04:37:18;;;;;;;38.42;18.35;;;8.80;99.90;;;;;;4954626;29;20542;-71
2022/10/03 04:40:10;;;;;;;35.20;18.30;;;8.70;99.90;;;;;;4953481;29;20548;-71
2022/10/03 04:42:58;;;;;;;35.15;17.42;;;8.70;99.90;;;;;;4951292;29;20490;-70
2022/10/03 04:45:52;;;;;;;38.25;19.20;;;8.60;99.90;;;;;;4953472;28;20039;-71
2022/10/03 04:48:40;;;;;;;39.75;18.52;;;8.60;99.90;;;;;;4963584;28;20047;-71
2022/10/03 04:51:49;;;;;;;40.22;18.75;;;8.60;99.90;;;;;;4951026;29;20525;-70
2022/10/03 04:54:34;;;;;;;35.10;18.42;;;8.60;99.90;;;;;;4936355;29;20052;-70
2022/10/03 04:57:27;;;;;;;38.63;19.10;;;8.60;99.90;;;;;;4927520;29;20084;-70
2022/10/03 05:00:11;;;;;;;46.33;19.55;;;8.50;99.90;;;;;;4914827;29;20426;-70
2022/10/03 05:02:53;;;;;;;49.80;22.05;;;8.50;99.90;;;;;;4915737;29;20056;-70
2022/10/03 05:05:41;;;;;;;44.33;19.60;;;8.50;99.90;;;;;;4914730;29;20111;-70
2022/10/03 05:08:22;;;;;;;36.50;18.77;;;8.60;99.90;;;;;;4931977;29;20046;-69
2022/10/03 05:11:04;;;;;;;38.88;19.42;;;8.50;99.90;;;;;;4916901;29;20047;-70
2022/10/03 05:13:59;;;;;;;42.67;19.17;;;8.50;99.90;;;;;;4919708;29;20052;-70
2022/10/03 05:16:39;;;;;;;38.70;17.58;;;8.40;99.90;;;;;;4930307;29;20052;-70
2022/10/03 05:19:10;;;;;;;40.15;19.15;;;8.40;99.90;;;;;;4914540;29;20155;-70
2022/10/03 05:21:40;;;;;;;38.35;18.52;;;8.40;99.90;;;;;;4923433;29;20062;-70
2022/10/03 05:24:45;;;;;;;35.50;18.63;;;8.40;99.90;;;;;;4937771;29;20494;-71
2022/10/03 05:27:22;;;;;;;35.70;18.42;;;8.40;99.90;;;;;;4936991;29;20077;-70
2022/10/03 05:30:02;;;;;;;44.25;20.85;;;8.40;99.90;;;;;;4953755;28;20039;-70
2022/10/03 05:32:43;;;;;;;39.92;18.67;;;8.40;99.90;;;;;;4958861;28;20123;-71
2022/10/03 05:35:53;;;;;;;45.40;18.80;;;8.40;99.90;;;;;;4935062;29;20410;-70
2022/10/03 05:38:39;;;;;;;46.08;20.17;;;8.40;99.90;;;;;;4965529;28;20062;-70
2022/10/03 05:41:16;;;;;;;36.35;18.65;;;8.40;99.90;;;;;;4943620;28;20055;-70
2022/10/03 05:43:57;;;;;;;41.80;19.48;;;8.50;99.90;;;;;;4952780;28;20047;-70
2022/10/03 05:46:55;;;;;;;38.58;19.25;;;8.50;99.90;;;;;;4952066;29;20055;-70
2022/10/03 05:49:48;;;;;;;38.92;18.48;;;8.50;99.90;;;;;;4962673;28;20050;-70
2022/10/03 05:52:24;;;;;;;35.65;17.73;;;8.60;99.90;;;;;;4952631;28;20476;-71
2022/10/03 05:55:17;;;;;;;35.95;19.65;;;8.70;99.90;;;;;;4961097;28;20050;-70
2022/10/03 05:57:51;;;;;;;43.88;20.65;;;8.80;99.90;;;;;;4958411;28;20050;-70
2022/10/03 06:00:33;;;;;;;38.20;19.95;;;8.90;99.90;;;;;;4956490;28;20044;-71
2022/10/03 06:03:29;;;;;;;;;;;9.00;99.90;;;;;;4943634;29;20047;-70
2022/10/03 06:06:16;;;;;;;45.97;20.65;;;9.10;99.90;;;;;;4947348;29;20524;-70
2022/10/03 06:08:49;;;;;;;38.10;20.25;;;9.30;99.90;;;;;;4934980;29;20066;-70
2022/10/03 06:11:22;;;;;;;41.53;18.05;;;9.30;99.90;;;;;;4956944;28;20070;-69
2022/10/03 06:14:01;;;;;;;36.55;18.48;;;9.30;99.90;;;;;;4934875;29;20469;-70
2022/10/03 06:16:41;;;;;;;35.30;18.25;;;9.40;99.90;;;;;;4951740;28;20043;-71
2022/10/03 06:19:42;;;;;;;36.10;18.20;;;9.40;99.90;;;;;;4945649;28;20051;-71
2022/10/03 06:22:46;;;;;;;37.88;18.90;;;9.40;99.90;;;;;;4934414;29;20536;-69
2022/10/03 06:25:51;;;;;;;33.30;16.52;;;9.50;99.90;;;;;;4943766;29;20422;-71
2022/10/03 06:28:40;;;;;;;37.85;17.45;;;9.50;99.90;;;;;;4945993;28;20039;-71
2022/10/03 06:31:13;;;;;;;34.15;17.02;;;9.70;99.90;;;;;;4949699;28;20453;-70
2022/10/03 06:33:52;;;;;;;31.80;17.27;;;9.70;99.90;;;;;;4934348;28;20051;-70
2022/10/03 06:36:44;;;;;;;31.55;16.38;;;9.80;99.90;;;;;;4932893;29;20047;-71
2022/10/03 06:39:32;;;;;;;33.33;16.33;;;9.80;99.90;;;;;;4948393;29;20035;-69
2022/10/03 06:42:42;;;;;;;31.33;15.15;;;9.90;99.90;;;;;;4949043;29;20047;-69
2022/10/03 06:45:34;;;;;;;33.38;16.85;;;9.80;99.90;;;;;;4946551;28;20106;-69
2022/10/03 06:48:41;;;;;;;35.33;18.33;;;10.00;99.90;;;;;;4953996;28;20509;-70
2022/10/03 06:51:30;;;;;;;44.60;21.88;;;10.00;99.90;;;;;;4931659;29;20047;-70
2022/10/03 06:54:33;;;;;;;28.30;15.48;;;10.10;99.90;;;;;;4954746;29;20066;-70
2022/10/03 06:57:03;;;;;;;35.40;16.20;;;10.20;99.90;;;;;;4960397;28;20057;-72
2022/10/03 06:59:52;;;;;;;26.67;14.07;;;10.30;99.90;;;;;;4929031;29;20074;-72
2022/10/03 07:02:41;;;;;;;25.80;14.70;;;10.40;99.90;;;;;;4954550;29;20073;-72
2022/10/03 07:05:42;;;;;;;28.42;15.02;;;10.50;99.90;;;;;;4934773;29;20586;-75
2022/10/03 07:08:33;;;;;;;26.38;14.95;;;10.50;99.90;;;;;;4951768;29;20043;-70
2022/10/03 07:11:10;;;;;;;22.83;13.07;;;10.40;99.90;;;;;;4954333;29;20046;-71
2022/10/03 07:14:07;;;;;;;22.02;13.07;;;10.50;99.90;;;;;;4955368;28;20039;-71
2022/10/03 07:17:10;;;;;;;26.88;13.98;;;10.50;99.90;;;;;;4953301;29;20047;-70
2022/10/03 07:20:17;;;;;;;24.27;14.27;;;10.60;99.90;;;;;;4937840;29;20569;-71
2022/10/03 07:23:13;;;;;;;25.10;13.70;;;10.70;99.90;;;;;;4954901;28;20039;-69
2022/10/03 07:26:15;;;;;;;33.95;20.00;;;10.80;99.90;;;;;;4953512;28;21292;-71
2022/10/03 07:28:48;;;;;;;23.02;13.65;;;10.90;99.90;;;;;;4954382;29;20477;-70
2022/10/03 07:31:41;;;;;;;22.75;13.68;;;11.00;99.90;;;;;;4954837;28;20039;-70
2022/10/03 07:34:38;;;;;;;23.58;11.90;;;11.10;99.90;;;;;;4928039;29;20055;-70
2022/10/03 07:40:35;;;;;;;26.27;12.45;;;11.30;99.90;;;;;;4951387;29;20039;-70
2022/10/03 07:43:30;;;;;;;25.58;12.98;;;11.50;99.90;;;;;;4953737;29;20446;-70
2022/10/03 07:46:09;;;;;;;21.63;11.65;;;11.70;99.90;;;;;;4951929;29;20193;-70
2022/10/03 07:49:09;;;;;;;20.73;12.38;;;11.70;99.90;;;;;;4955086;28;20514;-71
2022/10/03 07:52:28;;;;;;;25.20;12.98;;;11.90;99.90;;;;;;4952684;29;20086;-70
2022/10/03 07:55:01;;;;;;;21.05;11.63;;;12.00;99.90;;;;;;4959384;28;20047;-70
2022/10/03 07:57:59;;;;;;;20.95;12.05;;;11.80;99.90;;;;;;4941919;28;20138;-71
2022/10/03 08:00:33;;;;;;;23.67;11.02;;;12.00;99.90;;;;;;4955315;28;20054;-70
2022/10/03 08:03:25;;;;;;;20.42;10.80;;;12.10;99.90;;;;;;4952847;28;20047;-70
2022/10/03 08:06:12;;;;;;;18.17;10.80;;;12.20;99.90;;;;;;4954496;28;20122;-70
2022/10/03 08:08:52;;;;;;;18.88;10.52;;;12.20;99.90;;;;;;4953084;29;20500;-70
2022/10/03 08:12:12;;;;;;;22.05;10.57;;;12.00;99.90;;;;;;4953342;29;20063;-70
2022/10/03 08:14:57;;;;;;;19.75;10.50;;;12.30;99.90;;;;;;4932131;29;20098;-69
2022/10/03 08:17:51;;;;;;;24.20;10.90;;;12.20;99.90;;;;;;4922059;29;20052;-70
2022/10/03 08:20:27;;;;;;;18.60;9.50;;;12.30;99.90;;;;;;4932668;29;20595;-69
2022/10/03 08:23:05;;;;;;;20.17;9.50;;;12.40;99.90;;;;;;4929552;29;20044;-71
2022/10/03 08:26:19;;;;;;;18.50;9.50;;;12.40;99.90;;;;;;4932514;29;20572;-71
2022/10/03 08:29:10;;;;;;;16.83;8.02;;;12.60;99.90;;;;;;4913629;29;20467;-71
2022/10/03 08:32:02;;;;;;;18.08;9.25;;;12.40;99.90;;;;;;4930211;29;20059;-73
2022/10/03 08:34:44;;;;;;;19.20;8.60;;;12.30;99.90;;;;;;4901422;29;20135;-73
2022/10/03 08:37:17;;;;;;;14.45;7.57;;;12.40;99.90;;;;;;4932308;29;20039;-71
2022/10/03 08:40:18;;;;;;;16.30;8.50;;;12.50;99.90;;;;;;4932291;29;20164;-71
2022/10/03 08:43:14;;;;;;;12.80;7.60;;;12.60;99.90;;;;;;4932255;29;20526;-72
2022/10/03 08:46:12;;;;;;;15.02;7.78;;;12.90;99.90;;;;;;4923575;29;20106;-70
2022/10/03 08:48:45;;;;;;;15.93;6.70;;;13.30;99.90;;;;;;4951718;28;20135;-71
2022/10/03 08:51:41;;;;;;;13.32;7.82;;;13.40;99.90;;;;;;4941133;29;20043;-72
2022/10/03 08:54:26;;;;;;;13.00;7.18;;;13.40;99.90;;;;;;4953356;28;20043;-71
2022/10/03 08:57:31;;;;;;;16.33;6.82;;;13.50;99.90;;;;;;4920657;29;20055;-72
2022/10/03 09:00:16;;;;;;;13.18;7.30;;;13.40;99.90;;;;;;4950983;28;20045;-72
2022/10/03 09:03:05;;;;;;;14.88;7.10;;;13.50;99.90;;;;;;4954318;28;20046;-72
2022/10/03 09:06:01;;;;;;;15.82;7.13;;;13.50;99.90;;;;;;4950619;28;20056;-71
2022/10/03 09:08:43;;;;;;;18.40;6.78;;;13.50;99.90;;;;;;4961632;28;20054;-70
2022/10/03 09:11:36;;;;;;;13.48;6.47;;;13.50;99.90;;;;;;4953466;28;20127;-70
2022/10/03 09:14:23;;;;;;;16.55;6.45;;;13.40;99.90;;;;;;4953122;28;20476;-71
2022/10/03 09:16:54;;;;;;;14.15;5.82;;;13.40;99.90;;;;;;4941947;29;20491;-71
2022/10/03 09:19:52;;;;;;;17.35;7.35;;;13.20;99.90;;;;;;4952125;28;20147;-70
2022/10/03 09:22:48;;;;;;;14.02;6.05;;;13.20;99.90;;;;;;4944862;29;20062;-71
2022/10/03 09:25:40;;;;;;;12.35;6.25;;;13.20;99.90;;;;;;4940657;29;20070;-70
2022/10/03 09:28:47;;;;;;;11.50;6.47;;;13.20;99.90;;;;;;4943151;28;20553;-70
2022/10/03 09:31:48;;;;;;;13.57;6.00;;;13.10;99.90;;;;;;4949420;29;20058;-71
2022/10/03 09:34:54;;;;;;;13.98;5.82;;;13.00;99.90;;;;;;4946202;28;20051;-72
2022/10/03 09:37:44;;;;;;;10.63;5.65;;;13.10;99.90;;;;;;4947527;29;20482;-71
2022/10/03 09:40:40;;;;;;;14.00;5.82;;;13.30;99.90;;;;;;4951657;28;20117;-70
2022/10/03 09:44:00;;;;;;;11.70;4.93;;;13.20;99.90;;;;;;4948283;29;20120;-71
2022/10/03 09:47:23;;;;;;;13.20;5.30;;;13.50;99.90;;;;;;4943907;28;20043;-69
2022/10/03 09:50:08;;;;;;;12.95;4.28;;;13.50;99.90;;;;;;4932160;29;20367;-72
2022/10/03 09:52:42;;;;;;;12.55;5.00;;;13.60;99.90;;;;;;4945381;29;20066;-71
2022/10/03 09:55:41;;;;;;;12.48;5.00;;;13.80;99.90;;;;;;4951911;28;20410;-70
2022/10/03 09:58:52;;;;;;;11.45;5.32;;;13.80;99.90;;;;;;4950627;29;20110;-72
2022/10/03 10:01:25;;;;;;;13.60;4.78;;;13.60;99.90;;;;;;4938428;29;20114;-71
2022/10/03 10:04:30;;;;;;;10.88;5.18;;;13.60;99.90;;;;;;4949503;29;20051;-70
2022/10/03 10:07:53;;;;;;;14.13;4.45;;;13.60;99.90;;;;;;4944613;29;20348;-71
2022/10/03 10:10:48;;;;;;;10.95;4.20;;;13.60;99.90;;;;;;4947362;29;20047;-70
2022/10/03 10:13:43;;;;;;;11.10;3.60;;;13.90;99.90;;;;;;4943490;28;20446;-71
2022/10/03 10:16:58;;;;;;;8.38;3.97;;;14.40;99.90;;;;;;4933225;29;20070;-74
2022/10/03 10:20:08;;;;;;;9.95;3.92;;;14.80;99.90;;;;;;4949997;28;20058;-70
2022/10/03 10:23:02;;;;;;;8.25;3.75;;;15.10;99.90;;;;;;4960473;28;20043;-72
2022/10/03 10:25:44;;;;;;;11.15;4.03;;;15.10;99.90;;;;;;4956341;28;20083;-72
2022/10/03 10:28:31;;;;;;;13.23;3.90;;;15.00;99.90;;;;;;4950630;28;20051;-72
2022/10/03 10:31:18;;;;;;;16.15;4.05;;;15.00;99.90;;;;;;4951304;28;20137;-72
2022/10/03 10:34:14;;;;;;;12.23;3.70;;;14.90;99.90;;;;;;4928242;29;20384;-68
2022/10/03 10:36:50;;;;;;;11.55;3.97;;;15.20;99.90;;;;;;4966502;28;20047;-68
2022/10/03 10:39:54;;;;;;;9.35;3.47;;;15.40;99.90;;;;;;4940212;29;20344;-69
2022/10/03 10:42:59;;;;;;;7.03;2.92;;;15.40;99.90;;;;;;4945427;29;20528;-68
2022/10/03 10:45:48;;;;;;;10.48;3.90;;;15.60;99.90;;;;;;4962916;28;20058;-69
2022/10/03 10:48:34;;;;;;;12.77;3.72;;;15.60;99.90;;;;;;4949352;28;20051;-68
2022/10/03 10:51:46;;;;;;;9.75;3.90;;;15.50;99.90;;;;;;4939888;29;20043;-70
2022/10/03 10:55:03;;;;;;;9.13;3.33;;;15.60;99.90;;;;;;4948372;28;20047;-69
2022/10/03 10:58:21;;;;;;;9.68;3.40;;;15.40;99.90;;;;;;4951494;28;20623;-69
2022/10/03 11:01:35;;;;;;;9.02;3.22;;;15.00;99.90;;;;;;4947067;28;20220;-69
2022/10/03 11:04:19;;;;;;;10.77;3.45;;;15.00;99.90;;;;;;4947709;28;20078;-70
2022/10/03 11:07:40;;;;;;;6.10;3.15;;;15.40;99.90;;;;;;4958273;28;20620;-70
2022/10/03 11:10:24;;;;;;;6.60;3.30;;;16.00;99.90;;;;;;4915023;29;20092;-70
2022/10/03 11:13:00;;;;;;;8.05;3.00;;;16.50;99.90;;;;;;4938406;29;20194;-69
2022/10/03 11:15:54;;;;;;;7.65;2.97;;;16.40;99.90;;;;;;4933158;29;20067;-70
2022/10/03 11:18:32;;;;;;;7.03;3.15;;;16.70;99.90;;;;;;4936987;29;20104;-70
2022/10/03 11:21:37;;;;;;;8.60;3.15;;;16.30;99.90;;;;;;4928513;29;20056;-69
2022/10/03 11:24:13;;;;;;;8.40;3.10;;;16.00;99.90;;;;;;4929290;29;20078;-69
2022/10/03 11:27:30;;;;;;;10.20;3.20;;;16.30;99.90;;;;;;4926024;29;20542;-70
2022/10/03 11:30:34;;;;;;;10.13;3.10;;;16.50;99.90;;;;;;4876469;29;20040;-68
2022/10/03 11:33:17;;;;;;;5.10;2.58;;;16.40;99.90;;;;;;4893442;29;20097;-69
2022/10/03 11:36:12;;;;;;;7.53;3.13;;;16.40;99.90;;;;;;4870714;29;20049;-69
2022/10/03 11:38:53;;;;;;;6.75;3.45;;;16.70;99.90;;;;;;4876669;29;20064;-69
2022/10/03 11:41:43;;;;;;;6.72;3.08;;;16.70;99.90;;;;;;4871164;29;20049;-68
2022/10/03 11:44:19;;;;;;;8.10;2.92;;;16.80;99.90;;;;;;4894078;29;20063;-68
2022/10/03 11:47:15;;;;;;;11.90;3.70;;;17.20;99.90;;;;;;4908395;29;20051;-69
2022/10/03 11:49:51;;;;;;;6.53;3.08;;;17.40;99.90;;;;;;4864772;29;20499;-68
2022/10/03 11:52:27;;;;;;;10.43;3.58;;;17.40;99.90;;;;;;4912093;29;20444;-69
2022/10/03 11:55:02;;;;;;;8.07;3.10;;;17.10;99.90;;;;;;4893140;29;20633;-70
2022/10/03 11:57:35;;;;;;;6.80;2.90;;;17.20;99.90;;;;;;4914438;29;20052;-69
2022/10/03 12:00:22;;;;;;;5.05;3.28;;;16.60;99.90;;;;;;4922072;29;20491;-68
2022/10/03 12:03:21;;;;;;;6.13;3.35;;;16.50;99.90;;;;;;4953471;29;20481;-69
2022/10/03 12:09:16;;;;;;;6.53;3.40;;;16.30;99.90;;;;;;4954480;28;20442;-70
2022/10/03 12:12:02;;;;;;;7.97;3.35;;;16.50;99.90;;;;;;4954310;28;20044;-67
2022/10/03 12:14:43;;;;;;;5.70;2.78;;;16.50;99.90;;;;;;4954689;28;20363;-69
2022/10/03 12:17:14;;;;;;;6.00;3.10;;;16.60;99.90;;;;;;4953104;29;20043;-69
2022/10/03 12:20:01;;;;;;;5.43;3.20;;;16.50;99.90;;;;;;4954622;28;20043;-69
2022/10/03 12:22:41;;;;;;;6.88;3.40;;;17.00;99.90;;;;;;4952676;29;21168;-68
2022/10/03 12:25:29;;;;;;;7.93;3.30;;;17.00;99.90;;;;;;4953478;29;20509;-69
2022/10/03 12:28:13;;;;;;;6.22;3.20;;;17.00;99.90;;;;;;4951402;29;20517;-70
2022/10/03 12:30:54;;;;;;;6.30;3.00;;;17.90;99.90;;;;;;4952801;29;20079;-69
2022/10/03 12:33:52;;;;;;;4.65;2.88;;;19.00;99.90;;;;;;4936817;29;20723;-70
2022/10/03 12:36:34;;;;;;;6.47;3.45;;;19.40;99.90;;;;;;4953910;29;20082;-69
2022/10/03 12:39:20;;;;;;;7.13;3.15;;;19.30;99.90;;;;;;4958536;28;20478;-69
2022/10/03 12:42:25;;;;;;;6.22;3.50;;;19.80;99.90;;;;;;4952641;28;20058;-71
2022/10/03 12:44:52;;;;;;;7.78;3.35;;;21.30;99.90;;;;;;4945979;29;20490;-69
2022/10/03 12:47:44;;;;;;;7.20;3.58;;;20.60;99.90;;;;;;4951973;29;20054;-71
2022/10/03 12:50:39;;;;;;;7.82;3.60;;;19.70;99.90;;;;;;4955093;28;20051;-71
2022/10/03 12:53:15;;;;;;;6.53;3.42;;;19.00;99.90;;;;;;4952232;29;20074;-71
2022/10/03 12:56:01;;;;;;;5.55;3.38;;;18.20;99.90;;;;;;4952271;28;20043;-70
2022/10/03 12:58:41;;;;;;;5.80;3.30;;;17.30;99.90;;;;;;4961353;28;20118;-70
2022/10/03 13:01:27;;;;;;;7.32;3.80;;;16.90;99.90;;;;;;4932378;29;20043;-69
2022/10/03 13:04:00;;;;;;;7.18;3.50;;;16.40;99.90;;;;;;4955416;28;20063;-69
2022/10/03 13:06:38;;;;;;;7.45;3.45;;;16.30;99.90;;;;;;4948618;28;20053;-70
2022/10/03 13:09:43;;;;;;;6.97;3.65;;;15.90;99.90;;;;;;4953295;28;20474;-70
2022/10/03 13:12:38;;;;;;;5.20;3.40;;;15.80;99.90;;;;;;4951890;28;20517;-69
2022/10/03 13:15:41;;;;;;;10.25;4.00;;;16.10;99.90;;;;;;4942996;29;20047;-71
2022/10/03 13:18:27;;;;;;;5.38;3.40;;;16.20;99.90;;;;;;4958199;28;20035;-70
2022/10/03 13:20:58;;;;;;;5.85;3.15;;;16.10;99.90;;;;;;4957639;28;20634;-70
2022/10/03 13:23:57;;;;;;;5.45;3.35;;;16.30;99.90;;;;;;4950554;28;20050;-67
2022/10/03 13:26:46;;;;;;;6.35;3.40;;;16.20;99.90;;;;;;4955123;28;20132;-69
2022/10/03 13:29:28;;;;;;;6.53;3.38;;;16.40;99.90;;;;;;4954239;28;20469;-70
2022/10/03 13:32:11;;;;;;;6.13;3.58;;;16.90;99.90;;;;;;4953212;28;20050;-69
2022/10/03 13:34:49;;;;;;;8.00;3.78;;;17.10;99.90;;;;;;4965971;28;20486;-69
2022/10/03 13:38:10;;;;;;;6.88;3.30;;;17.30;99.90;;;;;;4935504;29;20046;-70
2022/10/03 13:40:42;;;;;;;7.78;3.70;;;17.40;99.90;;;;;;4936461;29;20046;-69
2022/10/03 13:43:14;;;;;;;6.40;3.67;;;17.50;99.90;;;;;;4955276;28;20502;-69
2022/10/03 13:45:47;;;;;;;6.82;3.40;;;17.70;99.90;;;;;;4953348;28;20055;-71
2022/10/03 13:48:25;;;;;;;5.57;3.80;;;17.30;99.90;;;;;;4947490;28;20051;-71
2022/10/03 13:51:00;;;;;;;5.88;3.53;;;17.00;99.90;;;;;;4951924;28;20046;-71
2022/10/03 13:53:41;;;;;;;7.10;3.58;;;17.10;99.90;;;;;;4955647;28;20053;-70
2022/10/03 13:56:16;;;;;;;7.20;3.97;;;16.90;99.90;;;;;;4941511;29;20043;-71
2022/10/03 13:58:56;;;;;;;5.40;3.28;;;16.90;99.90;;;;;;4951697;29;20122;-70
2022/10/03 14:01:46;;;;;;;5.95;3.30;;;16.90;99.90;;;;;;4951042;29;20402;-69
2022/10/03 14:04:38;;;;;;;6.72;3.00;;;16.70;99.90;;;;;;4953219;28;20466;-71
2022/10/03 14:07:23;;;;;;;5.32;3.22;;;16.80;99.90;;;;;;4938399;28;20048;-70
2022/10/03 14:09:59;;;;;;;4.70;3.20;;;17.00;99.90;;;;;;4907797;29;20050;-70
2022/10/03 14:13:00;;;;;;;6.65;3.35;;;17.20;99.90;;;;;;4964820;28;20046;-70
2022/10/03 14:15:50;;;;;;;6.38;2.97;;;17.30;99.90;;;;;;4942281;29;20146;-70
2022/10/03 14:18:55;;;;;;;6.13;3.53;;;17.00;99.90;;;;;;4961144;28;20557;-69
2022/10/03 14:21:43;;;;;;;5.40;3.08;;;16.80;99.90;;;;;;4962167;28;20102;-71
2022/10/03 14:24:27;;;;;;;5.38;2.90;;;16.60;99.90;;;;;;4946703;28;20489;-69
2022/10/03 14:27:00;;;;;;;5.70;3.20;;;16.00;99.90;;;;;;4947334;29;20171;-70
2022/10/03 14:29:49;;;;;;;7.30;3.55;;;16.10;99.90;;;;;;4948900;28;20055;-70
2022/10/03 14:32:23;;;;;;;5.80;2.95;;;16.00;99.90;;;;;;4949551;29;20585;-67
2022/10/03 14:35:36;;;;;;;6.38;3.85;;;15.90;99.90;;;;;;4961808;28;20063;-68
2022/10/03 14:38:12;;;;;;;7.25;4.07;;;15.80;99.90;;;;;;4953751;28;20106;-74
2022/10/03 14:40:49;;;;;;;5.13;3.08;;;15.80;99.90;;;;;;4956632;28;20138;-74